sensor_id;sensor_type;location;lat;lon;timestamp;P1;durP1;ratioP1;P2;durP2;ratioP2
32521;SDS011;18963;51.504;5.316;2023-05-19T00:04:09;17.02;;;15.32;;
32521;SDS011;18963;51.504;5.316;2023-05-19T00:06:38;14.60;;;13.07;;
32521;SDS011;18963;51.504;5.316;2023-05-19T00:09:06;17.17;;;15.48;;
32521;SDS011;18963;51.504;5.316;2023-05-19T00:11:36;15.65;;;14.00;;
32521;SDS011;18963;51.504;5.316;2023-05-19T00:14:04;16.40;;;14.30;;
32521;SDS011;18963;51.504;5.316;2023-05-19T00:16:31;17.00;;;13.95;;
32521;SDS011;18963;51.504;5.316;2023-05-19T00:18:57;16.40;;;13.98;;
32521;SDS011;18963;51.504;5.316;2023-05-19T00:21:24;16.13;;;13.98;;
32521;SDS011;18963;51.504;5.316;2023-05-19T00:23:50;14.82;;;13.30;;
32521;SDS011;18963;51.504;5.316;2023-05-19T00:28:41;15.52;;;12.93;;
32521;SDS011;18963;51.504;5.316;2023-05-19T00:33:32;14.40;;;12.85;;
32521;SDS011;18963;51.504;5.316;2023-05-19T00:38:27;16.13;;;12.80;;
32521;SDS011;18963;51.504;5.316;2023-05-19T00:40:58;16.30;;;12.93;;
32521;SDS011;18963;51.504;5.316;2023-05-19T00:43:24;14.32;;;12.88;;
32521;SDS011;18963;51.504;5.316;2023-05-19T00:48:16;18.67;;;13.20;;
32521;SDS011;18963;51.504;5.316;2023-05-19T00:53:07;18.05;;;13.05;;
32521;SDS011;18963;51.504;5.316;2023-05-19T00:58:00;14.38;;;12.93;;
32521;SDS011;18963;51.504;5.316;2023-05-19T01:00:29;13.98;;;12.25;;
32521;SDS011;18963;51.504;5.316;2023-05-19T01:02:55;13.63;;;12.05;;
32521;SDS011;18963;51.504;5.316;2023-05-19T01:07:46;14.70;;;12.32;;
32521;SDS011;18963;51.504;5.316;2023-05-19T01:10:17;14.18;;;12.10;;
32521;SDS011;18963;51.504;5.316;2023-05-19T01:12:43;15.20;;;12.60;;
32521;SDS011;18963;51.504;5.316;2023-05-19T01:17:38;15.68;;;11.77;;
32521;SDS011;18963;51.504;5.316;2023-05-19T01:20:23;14.10;;;11.70;;
32521;SDS011;18963;51.504;5.316;2023-05-19T01:30:47;14.30;;;11.52;;
32521;SDS011;18963;51.504;5.316;2023-05-19T01:33:18;18.38;;;12.65;;
32521;SDS011;18963;51.504;5.316;2023-05-19T01:35:46;14.20;;;10.50;;
32521;SDS011;18963;51.504;5.316;2023-05-19T01:38:13;12.30;;;10.52;;
32521;SDS011;18963;51.504;5.316;2023-05-19T01:40:41;13.95;;;10.85;;
32521;SDS011;18963;51.504;5.316;2023-05-19T01:43:08;15.70;;;10.35;;
32521;SDS011;18963;51.504;5.316;2023-05-19T01:45:41;13.35;;;10.93;;
32521;SDS011;18963;51.504;5.316;2023-05-19T01:48:07;14.10;;;10.98;;
32521;SDS011;18963;51.504;5.316;2023-05-19T01:52:59;13.98;;;10.18;;
32521;SDS011;18963;51.504;5.316;2023-05-19T01:55:25;12.00;;;10.73;;
32521;SDS011;18963;51.504;5.316;2023-05-19T02:05:30;15.15;;;10.10;;
32521;SDS011;18963;51.504;5.316;2023-05-19T02:08:12;11.32;;;9.93;;
32521;SDS011;18963;51.504;5.316;2023-05-19T02:10:49;12.23;;;9.75;;
32521;SDS011;18963;51.504;5.316;2023-05-19T02:13:19;11.32;;;8.75;;
32521;SDS011;18963;51.504;5.316;2023-05-19T02:15:47;12.90;;;9.50;;
32521;SDS011;18963;51.504;5.316;2023-05-19T02:18:14;14.73;;;10.13;;
32521;SDS011;18963;51.504;5.316;2023-05-19T02:20:42;14.13;;;9.73;;
32521;SDS011;18963;51.504;5.316;2023-05-19T02:25:33;12.50;;;9.73;;
32521;SDS011;18963;51.504;5.316;2023-05-19T02:30:24;11.75;;;9.98;;
32521;SDS011;18963;51.504;5.316;2023-05-19T02:35:18;11.48;;;10.02;;
32521;SDS011;18963;51.504;5.316;2023-05-19T02:37:44;12.63;;;9.77;;
32521;SDS011;18963;51.504;5.316;2023-05-19T02:42:35;12.32;;;9.25;;
32521;SDS011;18963;51.504;5.316;2023-05-19T02:47:26;11.52;;;9.05;;
32521;SDS011;18963;51.504;5.316;2023-05-19T02:52:17;19.55;;;10.07;;
32521;SDS011;18963;51.504;5.316;2023-05-19T02:57:08;14.35;;;9.80;;
32521;SDS011;18963;51.504;5.316;2023-05-19T02:59:35;13.45;;;9.00;;
32521;SDS011;18963;51.504;5.316;2023-05-19T03:02:01;15.82;;;9.32;;
32521;SDS011;18963;51.504;5.316;2023-05-19T03:06:53;13.70;;;9.77;;
32521;SDS011;18963;51.504;5.316;2023-05-19T03:09:19;11.18;;;9.77;;
32521;SDS011;18963;51.504;5.316;2023-05-19T03:14:10;12.07;;;9.07;;
32521;SDS011;18963;51.504;5.316;2023-05-19T03:16:37;12.43;;;9.75;;
32521;SDS011;18963;51.504;5.316;2023-05-19T03:19:05;14.48;;;10.88;;
32521;SDS011;18963;51.504;5.316;2023-05-19T03:23:56;12.57;;;10.00;;
32521;SDS011;18963;51.504;5.316;2023-05-19T03:28:48;12.55;;;10.35;;
32521;SDS011;18963;51.504;5.316;2023-05-19T03:33:40;12.15;;;5.45;;
32521;SDS011;18963;51.504;5.316;2023-05-19T03:38:31;15.35;;;5.95;;
32521;SDS011;18963;51.504;5.316;2023-05-19T03:43:22;11.73;;;5.30;;
32521;SDS011;18963;51.504;5.316;2023-05-19T03:48:13;12.20;;;5.90;;
32521;SDS011;18963;51.504;5.316;2023-05-19T03:50:40;11.63;;;6.25;;
32521;SDS011;18963;51.504;5.316;2023-05-19T03:53:06;11.15;;;6.40;;
32521;SDS011;18963;51.504;5.316;2023-05-19T03:57:57;12.82;;;9.98;;
32521;SDS011;18963;51.504;5.316;2023-05-19T04:02:48;12.98;;;9.60;;
32521;SDS011;18963;51.504;5.316;2023-05-19T04:05:15;14.35;;;9.77;;
32521;SDS011;18963;51.504;5.316;2023-05-19T04:10:07;13.80;;;8.60;;
32521;SDS011;18963;51.504;5.316;2023-05-19T04:14:58;12.95;;;9.77;;
32521;SDS011;18963;51.504;5.316;2023-05-19T04:19:50;14.93;;;11.45;;
32521;SDS011;18963;51.504;5.316;2023-05-19T04:22:17;15.20;;;10.77;;
32521;SDS011;18963;51.504;5.316;2023-05-19T04:27:08;14.98;;;11.80;;
32521;SDS011;18963;51.504;5.316;2023-05-19T04:29:36;15.48;;;11.73;;
32521;SDS011;18963;51.504;5.316;2023-05-19T04:32:03;16.55;;;14.15;;
32521;SDS011;18963;51.504;5.316;2023-05-19T04:34:32;18.58;;;14.68;;
32521;SDS011;18963;51.504;5.316;2023-05-19T04:36:58;17.08;;;15.40;;
32521;SDS011;18963;51.504;5.316;2023-05-19T04:41:50;17.60;;;15.10;;
32521;SDS011;18963;51.504;5.316;2023-05-19T04:44:17;18.25;;;14.10;;
32521;SDS011;18963;51.504;5.316;2023-05-19T04:46:43;17.85;;;14.90;;
32521;SDS011;18963;51.504;5.316;2023-05-19T04:49:09;18.77;;;15.20;;
32521;SDS011;18963;51.504;5.316;2023-05-19T04:51:38;17.35;;;14.63;;
32521;SDS011;18963;51.504;5.316;2023-05-19T04:54:06;21.33;;;15.32;;
32521;SDS011;18963;51.504;5.316;2023-05-19T04:56:32;18.67;;;15.23;;
32521;SDS011;18963;51.504;5.316;2023-05-19T05:01:23;19.88;;;16.48;;
32521;SDS011;18963;51.504;5.316;2023-05-19T05:03:50;19.02;;;15.93;;
32521;SDS011;18963;51.504;5.316;2023-05-19T05:06:19;17.60;;;15.00;;
32521;SDS011;18963;51.504;5.316;2023-05-19T05:08:47;19.88;;;16.67;;
32521;SDS011;18963;51.504;5.316;2023-05-19T05:13:39;18.92;;;16.95;;
32521;SDS011;18963;51.504;5.316;2023-05-19T05:18:32;16.67;;;14.98;;
32521;SDS011;18963;51.504;5.316;2023-05-19T05:20:58;17.40;;;15.65;;
32521;SDS011;18963;51.504;5.316;2023-05-19T05:23:25;18.52;;;16.08;;
32521;SDS011;18963;51.504;5.316;2023-05-19T05:28:16;19.27;;;14.40;;
32521;SDS011;18963;51.504;5.316;2023-05-19T05:33:08;16.15;;;13.20;;
32521;SDS011;18963;51.504;5.316;2023-05-19T05:38:01;16.17;;;13.18;;
32521;SDS011;18963;51.504;5.316;2023-05-19T05:42:53;15.90;;;12.90;;
32521;SDS011;18963;51.504;5.316;2023-05-19T05:45:21;14.02;;;12.70;;
32521;SDS011;18963;51.504;5.316;2023-05-19T05:47:47;14.80;;;13.20;;
32521;SDS011;18963;51.504;5.316;2023-05-19T05:52:38;16.02;;;13.68;;
32521;SDS011;18963;51.504;5.316;2023-05-19T05:55:06;13.88;;;12.38;;
32521;SDS011;18963;51.504;5.316;2023-05-19T05:57:32;15.73;;;13.45;;
32521;SDS011;18963;51.504;5.316;2023-05-19T06:00:00;16.65;;;14.95;;
32521;SDS011;18963;51.504;5.316;2023-05-19T06:04:52;21.92;;;13.80;;
32521;SDS011;18963;51.504;5.316;2023-05-19T06:09:43;16.02;;;14.05;;
32521;SDS011;18963;51.504;5.316;2023-05-19T06:14:35;16.70;;;15.00;;
32521;SDS011;18963;51.504;5.316;2023-05-19T06:17:00;17.00;;;15.30;;
32521;SDS011;18963;51.504;5.316;2023-05-19T06:21:52;20.33;;;14.10;;
32521;SDS011;18963;51.504;5.316;2023-05-19T06:26:43;15.27;;;13.45;;
32521;SDS011;18963;51.504;5.316;2023-05-19T06:29:08;15.70;;;14.15;;
32521;SDS011;18963;51.504;5.316;2023-05-19T06:33:59;14.38;;;10.85;;
32521;SDS011;18963;51.504;5.316;2023-05-19T06:36:25;13.05;;;11.85;;
32521;SDS011;18963;51.504;5.316;2023-05-19T06:38:51;15.80;;;14.38;;
32521;SDS011;18963;51.504;5.316;2023-05-19T06:41:16;15.40;;;14.02;;
32521;SDS011;18963;51.504;5.316;2023-05-19T06:43:42;14.70;;;13.25;;
32521;SDS011;18963;51.504;5.316;2023-05-19T06:46:08;15.30;;;13.90;;
32521;SDS011;18963;51.504;5.316;2023-05-19T06:48:33;15.57;;;14.18;;
32521;SDS011;18963;51.504;5.316;2023-05-19T06:50:59;14.00;;;12.70;;
32521;SDS011;18963;51.504;5.316;2023-05-19T06:53:24;12.23;;;11.10;;
32521;SDS011;18963;51.504;5.316;2023-05-19T06:55:50;13.07;;;11.75;;
32521;SDS011;18963;51.504;5.316;2023-05-19T06:58:16;14.05;;;11.90;;
32521;SDS011;18963;51.504;5.316;2023-05-19T07:00:41;13.25;;;11.00;;
32521;SDS011;18963;51.504;5.316;2023-05-19T07:03:07;12.40;;;11.10;;
32521;SDS011;18963;51.504;5.316;2023-05-19T07:05:33;11.20;;;10.10;;
32521;SDS011;18963;51.504;5.316;2023-05-19T07:07:59;12.32;;;11.02;;
32521;SDS011;18963;51.504;5.316;2023-05-19T07:10:25;15.15;;;10.95;;
32521;SDS011;18963;51.504;5.316;2023-05-19T07:12:51;13.18;;;10.13;;
32521;SDS011;18963;51.504;5.316;2023-05-19T07:15:17;12.15;;;10.90;;
32521;SDS011;18963;51.504;5.316;2023-05-19T07:17:42;11.93;;;9.77;;
32521;SDS011;18963;51.504;5.316;2023-05-19T07:20:08;13.38;;;10.13;;
32521;SDS011;18963;51.504;5.316;2023-05-19T07:22:34;12.15;;;8.30;;
32521;SDS011;18963;51.504;5.316;2023-05-19T07:25:00;11.55;;;7.47;;
32521;SDS011;18963;51.504;5.316;2023-05-19T07:27:26;10.27;;;7.10;;
32521;SDS011;18963;51.504;5.316;2023-05-19T07:29:53;12.63;;;6.80;;
32521;SDS011;18963;51.504;5.316;2023-05-19T07:32:18;11.20;;;6.72;;
32521;SDS011;18963;51.504;5.316;2023-05-19T07:34:44;8.68;;;5.80;;
32521;SDS011;18963;51.504;5.316;2023-05-19T07:37:10;7.57;;;5.80;;
32521;SDS011;18963;51.504;5.316;2023-05-19T07:39:35;10.38;;;6.10;;
32521;SDS011;18963;51.504;5.316;2023-05-19T07:42:01;11.02;;;6.72;;
32521;SDS011;18963;51.504;5.316;2023-05-19T07:44:26;10.13;;;6.32;;
32521;SDS011;18963;51.504;5.316;2023-05-19T07:46:55;9.73;;;6.97;;
32521;SDS011;18963;51.504;5.316;2023-05-19T07:49:20;8.93;;;6.75;;
32521;SDS011;18963;51.504;5.316;2023-05-19T07:51:46;8.80;;;6.90;;
32521;SDS011;18963;51.504;5.316;2023-05-19T07:54:12;11.50;;;7.07;;
32521;SDS011;18963;51.504;5.316;2023-05-19T07:56:37;10.85;;;7.57;;
32521;SDS011;18963;51.504;5.316;2023-05-19T07:59:03;12.45;;;7.00;;
32521;SDS011;18963;51.504;5.316;2023-05-19T08:01:29;8.38;;;6.40;;
32521;SDS011;18963;51.504;5.316;2023-05-19T08:03:56;9.07;;;6.35;;
32521;SDS011;18963;51.504;5.316;2023-05-19T08:06:21;8.55;;;6.35;;
32521;SDS011;18963;51.504;5.316;2023-05-19T08:08:49;9.75;;;6.22;;
32521;SDS011;18963;51.504;5.316;2023-05-19T08:11:14;7.05;;;6.25;;
32521;SDS011;18963;51.504;5.316;2023-05-19T08:13:40;9.20;;;6.28;;
32521;SDS011;18963;51.504;5.316;2023-05-19T08:16:06;9.95;;;6.00;;
32521;SDS011;18963;51.504;5.316;2023-05-19T08:18:31;11.48;;;6.03;;
32521;SDS011;18963;51.504;5.316;2023-05-19T08:20:57;9.80;;;5.82;;
32521;SDS011;18963;51.504;5.316;2023-05-19T08:23:23;10.07;;;6.32;;
32521;SDS011;18963;51.504;5.316;2023-05-19T08:25:48;8.30;;;5.35;;
32521;SDS011;18963;51.504;5.316;2023-05-19T08:28:14;32.13;;;10.15;;
32521;SDS011;18963;51.504;5.316;2023-05-19T08:30:40;9.10;;;6.25;;
32521;SDS011;18963;51.504;5.316;2023-05-19T08:33:05;7.10;;;6.18;;
32521;SDS011;18963;51.504;5.316;2023-05-19T08:35:32;9.35;;;6.03;;
32521;SDS011;18963;51.504;5.316;2023-05-19T08:37:57;7.22;;;5.78;;
32521;SDS011;18963;51.504;5.316;2023-05-19T08:40:23;8.48;;;5.80;;
32521;SDS011;18963;51.504;5.316;2023-05-19T08:42:51;7.53;;;5.35;;
32521;SDS011;18963;51.504;5.316;2023-05-19T08:45:17;6.45;;;4.88;;
32521;SDS011;18963;51.504;5.316;2023-05-19T08:47:46;9.07;;;6.03;;
32521;SDS011;18963;51.504;5.316;2023-05-19T08:50:26;5.90;;;5.07;;
32521;SDS011;18963;51.504;5.316;2023-05-19T08:53:00;7.18;;;6.25;;
32521;SDS011;18963;51.504;5.316;2023-05-19T08:55:42;8.23;;;5.38;;
32521;SDS011;18963;51.504;5.316;2023-05-19T08:58:13;7.38;;;5.28;;
32521;SDS011;18963;51.504;5.316;2023-05-19T09:00:41;7.88;;;5.35;;
32521;SDS011;18963;51.504;5.316;2023-05-19T09:03:07;7.43;;;5.00;;
32521;SDS011;18963;51.504;5.316;2023-05-19T09:05:33;8.93;;;4.70;;
32521;SDS011;18963;51.504;5.316;2023-05-19T09:07:59;5.90;;;4.70;;
32521;SDS011;18963;51.504;5.316;2023-05-19T09:10:26;5.90;;;4.10;;
32521;SDS011;18963;51.504;5.316;2023-05-19T09:12:52;5.60;;;3.22;;
32521;SDS011;18963;51.504;5.316;2023-05-19T09:15:18;6.63;;;3.95;;
32521;SDS011;18963;51.504;5.316;2023-05-19T09:17:44;7.95;;;2.90;;
32521;SDS011;18963;51.504;5.316;2023-05-19T09:20:12;8.30;;;3.20;;
32521;SDS011;18963;51.504;5.316;2023-05-19T09:22:41;5.15;;;2.47;;
32521;SDS011;18963;51.504;5.316;2023-05-19T09:25:21;7.72;;;4.80;;
32521;SDS011;18963;51.504;5.316;2023-05-19T09:27:48;8.77;;;5.03;;
32521;SDS011;18963;51.504;5.316;2023-05-19T09:30:17;5.80;;;4.47;;
32521;SDS011;18963;51.504;5.316;2023-05-19T09:32:43;7.88;;;4.75;;
32521;SDS011;18963;51.504;5.316;2023-05-19T09:35:10;10.40;;;4.65;;
32521;SDS011;18963;51.504;5.316;2023-05-19T09:37:40;8.75;;;4.88;;
32521;SDS011;18963;51.504;5.316;2023-05-19T09:40:09;6.82;;;4.55;;
32521;SDS011;18963;51.504;5.316;2023-05-19T09:42:37;8.38;;;4.38;;
32521;SDS011;18963;51.504;5.316;2023-05-19T09:45:03;6.60;;;4.55;;
32521;SDS011;18963;51.504;5.316;2023-05-19T09:50:03;7.22;;;5.07;;
32521;SDS011;18963;51.504;5.316;2023-05-19T09:52:30;8.88;;;4.70;;
32521;SDS011;18963;51.504;5.316;2023-05-19T09:54:59;6.15;;;4.18;;
32521;SDS011;18963;51.504;5.316;2023-05-19T09:57:31;6.75;;;3.90;;
32521;SDS011;18963;51.504;5.316;2023-05-19T10:00:00;10.13;;;3.95;;
32521;SDS011;18963;51.504;5.316;2023-05-19T10:02:35;5.63;;;4.15;;
32521;SDS011;18963;51.504;5.316;2023-05-19T10:05:05;8.93;;;3.97;;
32521;SDS011;18963;51.504;5.316;2023-05-19T10:07:31;6.38;;;4.00;;
32521;SDS011;18963;51.504;5.316;2023-05-19T10:09:58;5.13;;;3.63;;
32521;SDS011;18963;51.504;5.316;2023-05-19T10:12:24;7.20;;;3.63;;
32521;SDS011;18963;51.504;5.316;2023-05-19T10:14:51;8.52;;;3.92;;
32521;SDS011;18963;51.504;5.316;2023-05-19T10:17:18;6.45;;;3.45;;
32521;SDS011;18963;51.504;5.316;2023-05-19T10:19:45;7.45;;;3.80;;
32521;SDS011;18963;51.504;5.316;2023-05-19T10:22:14;7.78;;;3.85;;
32521;SDS011;18963;51.504;5.316;2023-05-19T10:24:40;11.63;;;3.97;;
32521;SDS011;18963;51.504;5.316;2023-05-19T10:27:12;6.93;;;4.20;;
32521;SDS011;18963;51.504;5.316;2023-05-19T10:29:40;6.68;;;4.05;;
32521;SDS011;18963;51.504;5.316;2023-05-19T10:32:14;6.63;;;4.40;;
32521;SDS011;18963;51.504;5.316;2023-05-19T10:40:20;5.88;;;3.70;;
32521;SDS011;18963;51.504;5.316;2023-05-19T10:45:41;6.00;;;3.97;;
32521;SDS011;18963;51.504;5.316;2023-05-19T10:48:19;6.43;;;3.60;;
32521;SDS011;18963;51.504;5.316;2023-05-19T10:50:46;9.27;;;3.90;;
32521;SDS011;18963;51.504;5.316;2023-05-19T10:53:16;10.90;;;4.30;;
32521;SDS011;18963;51.504;5.316;2023-05-19T11:01:13;5.03;;;3.70;;
32521;SDS011;18963;51.504;5.316;2023-05-19T11:08:43;5.10;;;3.50;;
32521;SDS011;18963;51.504;5.316;2023-05-19T11:11:15;6.15;;;3.88;;
32521;SDS011;18963;51.504;5.316;2023-05-19T11:13:49;8.30;;;4.03;;
32521;SDS011;18963;51.504;5.316;2023-05-19T11:16:20;5.25;;;3.70;;
32521;SDS011;18963;51.504;5.316;2023-05-19T11:18:52;5.85;;;3.20;;
32521;SDS011;18963;51.504;5.316;2023-05-19T11:21:19;5.60;;;3.70;;
32521;SDS011;18963;51.504;5.316;2023-05-19T11:23:45;5.32;;;3.80;;
32521;SDS011;18963;51.504;5.316;2023-05-19T11:26:10;4.55;;;3.40;;
32521;SDS011;18963;51.504;5.316;2023-05-19T11:28:36;7.38;;;3.90;;
32521;SDS011;18963;51.504;5.316;2023-05-19T11:31:03;6.63;;;3.72;;
32521;SDS011;18963;51.504;5.316;2023-05-19T11:33:32;4.68;;;3.75;;
32521;SDS011;18963;51.504;5.316;2023-05-19T11:35:58;6.68;;;3.60;;
32521;SDS011;18963;51.504;5.316;2023-05-19T11:38:23;8.15;;;3.85;;
32521;SDS011;18963;51.504;5.316;2023-05-19T11:40:52;5.18;;;3.92;;
32521;SDS011;18963;51.504;5.316;2023-05-19T11:43:18;7.97;;;4.03;;
32521;SDS011;18963;51.504;5.316;2023-05-19T11:45:47;7.18;;;4.13;;
32521;SDS011;18963;51.504;5.316;2023-05-19T11:48:12;8.18;;;3.47;;
32521;SDS011;18963;51.504;5.316;2023-05-19T11:50:40;7.38;;;3.75;;
32521;SDS011;18963;51.504;5.316;2023-05-19T11:53:06;5.32;;;4.00;;
32521;SDS011;18963;51.504;5.316;2023-05-19T11:55:31;6.15;;;3.72;;
32521;SDS011;18963;51.504;5.316;2023-05-19T11:57:57;6.88;;;4.10;;
32521;SDS011;18963;51.504;5.316;2023-05-19T12:00:25;6.25;;;4.00;;
32521;SDS011;18963;51.504;5.316;2023-05-19T12:02:51;5.68;;;3.83;;
32521;SDS011;18963;51.504;5.316;2023-05-19T12:05:20;6.05;;;3.70;;
32521;SDS011;18963;51.504;5.316;2023-05-19T12:07:49;6.15;;;3.72;;
32521;SDS011;18963;51.504;5.316;2023-05-19T12:10:26;4.78;;;3.63;;
32521;SDS011;18963;51.504;5.316;2023-05-19T12:12:53;4.25;;;3.67;;
32521;SDS011;18963;51.504;5.316;2023-05-19T12:15:19;6.35;;;3.88;;
32521;SDS011;18963;51.504;5.316;2023-05-19T12:17:49;5.45;;;3.70;;
32521;SDS011;18963;51.504;5.316;2023-05-19T12:20:18;5.32;;;3.75;;
32521;SDS011;18963;51.504;5.316;2023-05-19T12:22:45;8.43;;;3.90;;
32521;SDS011;18963;51.504;5.316;2023-05-19T12:25:11;5.65;;;3.80;;
32521;SDS011;18963;51.504;5.316;2023-05-19T12:27:38;7.68;;;4.15;;
32521;SDS011;18963;51.504;5.316;2023-05-19T12:30:07;5.53;;;4.15;;
32521;SDS011;18963;51.504;5.316;2023-05-19T12:32:34;7.90;;;4.30;;
32521;SDS011;18963;51.504;5.316;2023-05-19T12:35:03;6.22;;;4.80;;
32521;SDS011;18963;51.504;5.316;2023-05-19T12:37:30;6.03;;;4.38;;
32521;SDS011;18963;51.504;5.316;2023-05-19T12:39:58;7.05;;;4.72;;
32521;SDS011;18963;51.504;5.316;2023-05-19T12:42:26;6.32;;;4.93;;
32521;SDS011;18963;51.504;5.316;2023-05-19T12:44:55;5.50;;;4.50;;
32521;SDS011;18963;51.504;5.316;2023-05-19T12:47:21;5.15;;;4.63;;
32521;SDS011;18963;51.504;5.316;2023-05-19T12:49:54;6.43;;;4.60;;
32521;SDS011;18963;51.504;5.316;2023-05-19T12:52:28;6.05;;;4.57;;
32521;SDS011;18963;51.504;5.316;2023-05-19T12:57:25;8.63;;;5.32;;
32521;SDS011;18963;51.504;5.316;2023-05-19T12:59:52;7.97;;;5.32;;
32521;SDS011;18963;51.504;5.316;2023-05-19T13:02:17;6.32;;;5.38;;
32521;SDS011;18963;51.504;5.316;2023-05-19T13:04:44;6.28;;;5.68;;
32521;SDS011;18963;51.504;5.316;2023-05-19T13:07:10;6.22;;;5.63;;
32521;SDS011;18963;51.504;5.316;2023-05-19T13:09:36;7.05;;;5.60;;
32521;SDS011;18963;51.504;5.316;2023-05-19T13:12:02;9.38;;;5.10;;
32521;SDS011;18963;51.504;5.316;2023-05-19T13:14:28;8.27;;;5.53;;
32521;SDS011;18963;51.504;5.316;2023-05-19T13:16:54;10.73;;;5.38;;
32521;SDS011;18963;51.504;5.316;2023-05-19T13:19:19;5.80;;;5.15;;
32521;SDS011;18963;51.504;5.316;2023-05-19T13:21:45;7.03;;;5.22;;
32521;SDS011;18963;51.504;5.316;2023-05-19T13:24:11;5.78;;;5.07;;
32521;SDS011;18963;51.504;5.316;2023-05-19T13:26:38;7.28;;;5.38;;
32521;SDS011;18963;51.504;5.316;2023-05-19T13:29:05;5.18;;;4.68;;
32521;SDS011;18963;51.504;5.316;2023-05-19T13:31:31;6.43;;;5.15;;
32521;SDS011;18963;51.504;5.316;2023-05-19T13:33:56;7.38;;;4.68;;
32521;SDS011;18963;51.504;5.316;2023-05-19T13:36:22;6.85;;;4.68;;
32521;SDS011;18963;51.504;5.316;2023-05-19T13:38:48;6.45;;;4.93;;
32521;SDS011;18963;51.504;5.316;2023-05-19T13:41:14;6.20;;;4.93;;
32521;SDS011;18963;51.504;5.316;2023-05-19T13:43:40;6.07;;;4.50;;
32521;SDS011;18963;51.504;5.316;2023-05-19T13:46:05;7.20;;;4.70;;
32521;SDS011;18963;51.504;5.316;2023-05-19T13:48:31;5.90;;;4.70;;
32521;SDS011;18963;51.504;5.316;2023-05-19T13:50:56;9.43;;;5.47;;
32521;SDS011;18963;51.504;5.316;2023-05-19T13:53:22;6.38;;;4.80;;
32521;SDS011;18963;51.504;5.316;2023-05-19T13:55:47;10.32;;;5.50;;
32521;SDS011;18963;51.504;5.316;2023-05-19T13:58:13;10.43;;;5.30;;
32521;SDS011;18963;51.504;5.316;2023-05-19T14:00:40;5.50;;;5.00;;
32521;SDS011;18963;51.504;5.316;2023-05-19T14:03:06;11.10;;;5.20;;
32521;SDS011;18963;51.504;5.316;2023-05-19T14:05:32;9.27;;;5.10;;
32521;SDS011;18963;51.504;5.316;2023-05-19T14:07:58;7.20;;;5.25;;
32521;SDS011;18963;51.504;5.316;2023-05-19T14:10:25;5.65;;;4.65;;
32521;SDS011;18963;51.504;5.316;2023-05-19T14:12:50;9.93;;;4.55;;
32521;SDS011;18963;51.504;5.316;2023-05-19T14:15:18;6.97;;;4.32;;
32521;SDS011;18963;51.504;5.316;2023-05-19T14:17:44;7.35;;;4.57;;
32521;SDS011;18963;51.504;5.316;2023-05-19T14:20:10;8.75;;;4.65;;
32521;SDS011;18963;51.504;5.316;2023-05-19T14:22:36;9.52;;;5.40;;
32521;SDS011;18963;51.504;5.316;2023-05-19T14:25:01;6.57;;;4.55;;
32521;SDS011;18963;51.504;5.316;2023-05-19T14:27:27;6.50;;;4.93;;
32521;SDS011;18963;51.504;5.316;2023-05-19T14:29:53;7.60;;;5.45;;
32521;SDS011;18963;51.504;5.316;2023-05-19T14:32:18;9.95;;;5.15;;
32521;SDS011;18963;51.504;5.316;2023-05-19T14:34:44;8.80;;;5.57;;
32521;SDS011;18963;51.504;5.316;2023-05-19T14:37:09;5.88;;;5.13;;
32521;SDS011;18963;51.504;5.316;2023-05-19T14:39:35;9.15;;;5.63;;
32521;SDS011;18963;51.504;5.316;2023-05-19T14:42:01;9.77;;;5.80;;
32521;SDS011;18963;51.504;5.316;2023-05-19T14:44:29;7.80;;;5.28;;
32521;SDS011;18963;51.504;5.316;2023-05-19T14:46:57;7.28;;;5.25;;
32521;SDS011;18963;51.504;5.316;2023-05-19T14:49:24;7.80;;;5.72;;
32521;SDS011;18963;51.504;5.316;2023-05-19T14:51:49;7.18;;;5.82;;
32521;SDS011;18963;51.504;5.316;2023-05-19T14:54:15;6.38;;;5.70;;
32521;SDS011;18963;51.504;5.316;2023-05-19T14:56:40;8.45;;;4.93;;
32521;SDS011;18963;51.504;5.316;2023-05-19T14:59:06;11.60;;;5.82;;
32521;SDS011;18963;51.504;5.316;2023-05-19T15:01:31;7.07;;;4.95;;
32521;SDS011;18963;51.504;5.316;2023-05-19T15:03:57;6.00;;;5.40;;
32521;SDS011;18963;51.504;5.316;2023-05-19T15:06:23;7.18;;;5.25;;
32521;SDS011;18963;51.504;5.316;2023-05-19T15:08:48;10.18;;;5.38;;
32521;SDS011;18963;51.504;5.316;2023-05-19T15:11:14;7.55;;;5.15;;
32521;SDS011;18963;51.504;5.316;2023-05-19T15:13:39;6.13;;;5.25;;
32521;SDS011;18963;51.504;5.316;2023-05-19T15:16:05;9.07;;;6.10;;
32521;SDS011;18963;51.504;5.316;2023-05-19T15:18:34;8.15;;;5.30;;
32521;SDS011;18963;51.504;5.316;2023-05-19T15:21:02;7.30;;;6.10;;
32521;SDS011;18963;51.504;5.316;2023-05-19T15:23:28;8.05;;;5.20;;
32521;SDS011;18963;51.504;5.316;2023-05-19T15:25:54;6.75;;;5.97;;
32521;SDS011;18963;51.504;5.316;2023-05-19T15:28:19;10.18;;;5.95;;
32521;SDS011;18963;51.504;5.316;2023-05-19T15:30:45;9.30;;;4.50;;
32521;SDS011;18963;51.504;5.316;2023-05-19T15:33:11;10.57;;;4.82;;
32521;SDS011;18963;51.504;5.316;2023-05-19T15:35:37;5.18;;;4.20;;
32521;SDS011;18963;51.504;5.316;2023-05-19T15:38:02;6.63;;;4.60;;
32521;SDS011;18963;51.504;5.316;2023-05-19T15:40:33;5.88;;;5.20;;
32521;SDS011;18963;51.504;5.316;2023-05-19T15:42:59;5.70;;;5.07;;
32521;SDS011;18963;51.504;5.316;2023-05-19T15:45:24;8.18;;;4.65;;
32521;SDS011;18963;51.504;5.316;2023-05-19T15:47:50;5.10;;;4.60;;
32521;SDS011;18963;51.504;5.316;2023-05-19T15:50:16;10.77;;;4.30;;
32521;SDS011;18963;51.504;5.316;2023-05-19T15:52:42;7.97;;;3.90;;
32521;SDS011;18963;51.504;5.316;2023-05-19T15:55:07;6.05;;;3.90;;
32521;SDS011;18963;51.504;5.316;2023-05-19T15:57:33;6.35;;;3.88;;
32521;SDS011;18963;51.504;5.316;2023-05-19T15:59:59;5.15;;;4.22;;
32521;SDS011;18963;51.504;5.316;2023-05-19T16:02:25;6.18;;;3.97;;
32521;SDS011;18963;51.504;5.316;2023-05-19T16:04:50;8.95;;;3.70;;
32521;SDS011;18963;51.504;5.316;2023-05-19T16:07:16;7.03;;;4.38;;
32521;SDS011;18963;51.504;5.316;2023-05-19T16:09:42;8.30;;;4.95;;
32521;SDS011;18963;51.504;5.316;2023-05-19T16:12:08;7.03;;;4.28;;
32521;SDS011;18963;51.504;5.316;2023-05-19T16:14:33;8.90;;;3.92;;
32521;SDS011;18963;51.504;5.316;2023-05-19T16:17:01;6.47;;;3.80;;
32521;SDS011;18963;51.504;5.316;2023-05-19T16:19:27;7.20;;;4.10;;
32521;SDS011;18963;51.504;5.316;2023-05-19T16:21:53;6.53;;;4.28;;
32521;SDS011;18963;51.504;5.316;2023-05-19T16:24:18;6.88;;;3.80;;
32521;SDS011;18963;51.504;5.316;2023-05-19T16:26:44;7.38;;;4.55;;
32521;SDS011;18963;51.504;5.316;2023-05-19T16:29:10;10.00;;;4.10;;
32521;SDS011;18963;51.504;5.316;2023-05-19T16:31:36;5.78;;;3.83;;
32521;SDS011;18963;51.504;5.316;2023-05-19T16:34:01;8.75;;;4.28;;
32521;SDS011;18963;51.504;5.316;2023-05-19T16:36:27;6.78;;;4.25;;
32521;SDS011;18963;51.504;5.316;2023-05-19T16:38:52;8.07;;;4.07;;
32521;SDS011;18963;51.504;5.316;2023-05-19T16:41:18;7.90;;;4.70;;
32521;SDS011;18963;51.504;5.316;2023-05-19T16:43:43;8.20;;;4.15;;
32521;SDS011;18963;51.504;5.316;2023-05-19T16:46:09;7.50;;;4.18;;
32521;SDS011;18963;51.504;5.316;2023-05-19T16:48:36;4.70;;;4.10;;
32521;SDS011;18963;51.504;5.316;2023-05-19T16:51:01;7.88;;;4.43;;
32521;SDS011;18963;51.504;5.316;2023-05-19T16:53:27;7.63;;;4.07;;
32521;SDS011;18963;51.504;5.316;2023-05-19T16:55:52;6.05;;;4.10;;
32521;SDS011;18963;51.504;5.316;2023-05-19T16:58:18;8.57;;;4.45;;
32521;SDS011;18963;51.504;5.316;2023-05-19T17:00:44;6.72;;;4.85;;
32521;SDS011;18963;51.504;5.316;2023-05-19T17:03:09;4.88;;;4.32;;
32521;SDS011;18963;51.504;5.316;2023-05-19T17:05:35;6.82;;;3.92;;
32521;SDS011;18963;51.504;5.316;2023-05-19T17:08:02;8.55;;;4.20;;